Hauptseite
METAR-TAF:

METAR-TAF

Flughäfen :

Kugaaruk, Nunavut, Kanada

Breite: 68-32N, Länge: 089-49W, Höhe: 15 m

Beobachtung

Neuester Wetterbericht von vor 3 Stunden und 26 Minuten, um 23:00 UTC
Wind 13 kt aus Nordwest, Böen bis zu 20 kt
Temperatur -25°C
Luftfeuchtigkeit 76%
Luftdruck 1020 hPa
Sichtweite: 1.6 km
Himmel klar
Schneetreiben

METAR: CYBB 242300Z 32013G20KT 1SM BLSN SKC M25/M28 A3013 RMK BLSN6 VIS LWR SW S00 AFT 17UTC/0.0/LAST STFD OBS/NXT 251200Z SLP207

Zeit: 20:26 (02:26 UTC)

Prognose

Neuester Wetterbericht von vor 6 Stunden und 41 Minuten, um 19:45 UTC
Gültige Prognose vom 24 um 19 UTC bis 24 um 23 UTC
Wind 17 kt aus Nord/Nordwest
Himmel klar
Schneetreiben
Zeitweise
vom 24 um 19 UTC bis 24 um 23 UTC
Sichtweite: 9.7 km
Schneetreiben

TAF: CYBB 241945Z 2419/2423 33017KT 11/4SM BLSN SKC TEMPO 2419/2423 6SM BLSN RMK NXT FCST WILL BE ISSUED AT 251345Z

Wetterbeobachtungen und Prognosen von mehr als 4000 Flughäfen (METAR und TAF Bericht).

Die verfügbaren Stationen werden durch gelbe und rote Markierungen auf der Karte dargestellt.

Führen Sie die Maus auf sie, um den Namen der Station zu sehen.

Darauf klicken, um die Beobachtung von Wetterbeobachtungen und Prognosen zu sehen.

Um die Karte zu ändern : klicken Sie auf den grünen Tasten mit einem schwarzen Kreuz Zum Vergrößern, auf den grünen Button mit einem Gedankenstrich zu verkleinern, oder auf die grünen Pfeile für benachbarte Karten.


METAR-TAF: